01:22 MTB Moetz - Schotter - Pfaffenhofen - Rietz oben - Haiming - Moetz
Ort Moetz Datum 09.09.2017 16:01:46
Kategorie MTB
Distanz 36,28 Kilometer Steigung 212,0 Meter Gefälle -222,0 Meter
Gesamt Zeit 01:28:23 Aktiv 01:22:12 Pause 00:06:11
Durchs. Tempo 26,5 km/h Tempo max. 42,6 km/h Tempo min. 11,2 km/h
Kalorien 0 Durchs. HF 126 BPM HF max. 175 BPM
Wetter 17 °C Clouds Min/Max: 16,8 °C/18,2 °C; Druck: 1000,4 mbar; Rel. Feuchte: 72,7%; Taupunkt: 11,8 °C; Windgeschwindigkeit: 2,5 km/h; Niederschlag: 0,0mm
Ausrüstung Bontrager - Race X Lite MTB
BMC - Teamelite 02 XT 2016 XL
Notiz Moetz - Schotter - Pfaffenhofen - Rietz oben - Haiming - Moetz ... trocken, windig, frisch - locker (Fehler Pulsmessung) ... garmin connect
Splits
Distanz (km) Gesamt Zeit Split Zeit Split Tempo Split Tempo Höhenprofil (m)
1,00 00:02:11 00:02:11 00:02:12 27,4 -9,99
2,00 00:04:19 00:02:07 00:02:08 28,2 -0,78
3,00 00:06:19 00:02:00 00:02:01 29,8 -3,85
4,00 00:08:39 00:02:19 00:02:20 25,7 -3,41
5,00 00:10:52 00:02:12 00:02:13 27,2 -2,20
6,00 00:13:04 00:02:11 00:02:12 27,3 -2,58
7,00 00:15:20 00:02:16 00:02:16 26,4 -3,06
8,00 00:17:35 00:02:14 00:02:15 26,7 -1,63
9,00 00:19:53 00:02:18 00:02:18 26,0 2,84
10,00 00:22:04 00:02:10 00:02:10 27,6 -1,87
11,00 00:24:13 00:02:09 00:02:10 27,8 -2,21
12,00 00:26:31 00:02:17 00:02:18 26,1 1,47
13,00 00:28:37 00:02:06 00:02:06 28,5 4,10
14,00 00:30:37 00:01:59 00:02:00 30,0 2,92
15,00 00:34:05 00:03:27 00:03:28 17,3 39,36
16,00 00:37:26 00:03:20 00:03:21 17,9 20,47
17,00 00:40:32 00:03:06 00:03:06 19,3 5,50
18,00 00:42:12 00:01:39 00:01:40 36,1 -36,41
19,00 00:44:24 00:02:11 00:02:12 27,3 4,56
20,00 00:47:14 00:02:50 00:02:50 21,2 -4,04
21,00 00:48:54 00:01:40 00:01:40 36,0 -16,41
22,00 00:51:01 00:02:06 00:02:07 28,4 3,15
23,00 00:53:03 00:02:02 00:02:03 29,4 4,30
24,00 00:54:59 00:01:56 00:01:56 31,0 3,46
25,00 00:57:18 00:02:18 00:02:18 26,0 8,80
26,00 00:59:34 00:02:15 00:02:16 26,5 0,10
27,00 01:01:41 00:02:07 00:02:07 28,3 2,20
28,00 01:03:54 00:02:12 00:02:13 27,1 -3,04
29,00 01:05:58 00:02:04 00:02:04 29,0 -0,56
30,00 01:07:57 00:01:59 00:01:59 30,1 -0,80
31,00 01:09:54 00:01:56 00:01:56 30,9 -0,50
32,00 01:11:55 00:02:01 00:02:01 29,7 -3,43
33,00 01:13:57 00:02:02 00:02:02 29,5 1,57
34,00 01:16:07 00:02:09 00:02:10 27,7 -2,59
35,00 01:17:52 00:01:45 00:01:45 34,2 -4,07
36,00 01:19:50 00:01:57 00:01:58 30,5 -2,39
37,00 01:22:02 00:02:11 00:02:11 27,4 1,21
37,03 01:22:12 00:00:09 00:05:09 11,6 -0,12